ITY0129 LEVC-LEBB
Flight info
| Callsign | ITY0129 |
|---|---|
| Flight time | 0h 56m |
| Altitude | 13000 |
| Route | CENTA N733 BENED/N0470F300 DCT CJN DCT RBO N867 DGO |
| Aircraft | A320/M-SDE3FGHIRWY/LB1 |
Departure
| Time | 2026-05-04 17:33 |
|---|---|
| Airport | Valencia Airport (LEVC) |
Arrival
| Time | 2026-05-04 18:29 |
|---|---|
| Airport | Bilbao Airport (LEBB) |
| Time | Latitude | Longitude | Altitude | Speed | Heading |
|---|---|---|---|---|---|
| 2026-05-04 17:05 | 39.49035 | -0.47335 | 215 ft | 0 kts | 23° |
| 2026-05-04 17:24 | 39.49021 | -0.47342 | 211 ft | 2 kts | 23° |
| 2026-05-04 17:24 | 39.48980 | -0.47365 | 213 ft | 2 kts | 359° |
| 2026-05-04 17:25 | 39.48966 | -0.47360 | 215 ft | 0 kts | 301° |
| 2026-05-04 17:27 | 39.48984 | -0.47438 | 212 ft | 14 kts | 291° |
| 2026-05-04 17:27 | 39.49060 | -0.47648 | 210 ft | 14 kts | 279° |
| 2026-05-04 17:28 | 39.49031 | -0.47892 | 209 ft | 13 kts | 285° |
| 2026-05-04 17:29 | 39.49238 | -0.48439 | 214 ft | 25 kts | 295° |
| 2026-05-04 17:29 | 39.49480 | -0.49076 | 211 ft | 30 kts | 296° |
| 2026-05-04 17:30 | 39.49755 | -0.49798 | 215 ft | 25 kts | 297° |
| 2026-05-04 17:31 | 39.49735 | -0.49995 | 214 ft | 10 kts | 206° |
| 2026-05-04 17:31 | 39.49525 | -0.49717 | 215 ft | 56 kts | 116° |
| 2026-05-04 17:32 | 39.48809 | -0.47844 | 265 ft | 161 kts | 118° |
| 2026-05-04 17:33 | 39.47164 | -0.43968 | 1992 ft | 178 kts | 125° |
| 2026-05-04 17:33 | 39.46412 | -0.42574 | 2307 ft | 200 kts | 129° |
| 2026-05-04 17:34 | 39.43370 | -0.37592 | 3563 ft | 266 kts | 130° |
| 2026-05-04 17:34 | 39.42207 | -0.35680 | 4337 ft | 274 kts | 129° |
| 2026-05-04 17:35 | 39.37705 | -0.31336 | 6711 ft | 280 kts | 184° |
| 2026-05-04 17:35 | 39.34355 | -0.33268 | 8414 ft | 266 kts | 233° |
| 2026-05-04 17:35 | 39.33260 | -0.35190 | 9309 ft | 266 kts | 239° |
| 2026-05-04 17:36 | 39.32317 | -0.37247 | 10155 ft | 267 kts | 244° |
| 2026-05-04 17:36 | 39.31539 | -0.39429 | 10943 ft | 269 kts | 249° |
| 2026-05-04 17:36 | 39.30913 | -0.41781 | 11322 ft | 288 kts | 255° |
| 2026-05-04 17:36 | 39.30460 | -0.44370 | 11523 ft | 311 kts | 261° |
| 2026-05-04 17:37 | 39.30233 | -0.47250 | 11679 ft | 334 kts | 267° |
| 2026-05-04 17:37 | 39.30293 | -0.50326 | 12083 ft | 348 kts | 274° |
| 2026-05-04 17:37 | 39.30671 | -0.53439 | 12718 ft | 354 kts | 281° |
| 2026-05-04 17:37 | 39.31374 | -0.56514 | 13424 ft | 360 kts | 288° |
| 2026-05-04 17:38 | 39.32404 | -0.59478 | 14077 ft | 365 kts | 295° |
| 2026-05-04 17:38 | 39.33765 | -0.62280 | 14710 ft | 371 kts | 302° |
| 2026-05-04 17:38 | 39.35490 | -0.64808 | 15344 ft | 380 kts | 313° |
| 2026-05-04 17:38 | 39.37580 | -0.66944 | 15963 ft | 386 kts | 319° |
| 2026-05-04 17:39 | 39.41951 | -0.71093 | 17157 ft | 393 kts | 318° |
| 2026-05-04 17:39 | 39.44172 | -0.73202 | 17749 ft | 397 kts | 317° |
| 2026-05-04 17:39 | 39.46402 | -0.75326 | 18289 ft | 401 kts | 317° |
| 2026-05-04 17:40 | 39.48653 | -0.77473 | 18784 ft | 403 kts | 317° |
| 2026-05-04 17:40 | 39.50912 | -0.79630 | 19296 ft | 404 kts | 317° |
| 2026-05-04 17:40 | 39.53179 | -0.81799 | 19783 ft | 406 kts | 317° |
| 2026-05-04 17:40 | 39.55455 | -0.83979 | 20170 ft | 408 kts | 317° |
| 2026-05-04 17:41 | 39.57715 | -0.86145 | 20623 ft | 411 kts | 317° |
| 2026-05-04 17:41 | 39.60020 | -0.88354 | 21058 ft | 414 kts | 317° |
| 2026-05-04 17:41 | 39.62343 | -0.90582 | 21480 ft | 416 kts | 317° |
| 2026-05-04 17:41 | 39.64679 | -0.92823 | 21913 ft | 419 kts | 317° |
| 2026-05-04 17:42 | 39.67035 | -0.95083 | 22350 ft | 422 kts | 317° |
| 2026-05-04 17:42 | 39.69314 | -0.97480 | 22730 ft | 420 kts | 310° |
| 2026-05-04 17:42 | 39.71258 | -1.00286 | 23132 ft | 415 kts | 302° |
| 2026-05-04 17:42 | 39.72822 | -1.03424 | 23525 ft | 412 kts | 294° |
| 2026-05-04 17:43 | 39.74229 | -1.06680 | 23852 ft | 414 kts | 294° |
| 2026-05-04 17:43 | 39.75645 | -1.09950 | 24174 ft | 416 kts | 294° |
| 2026-05-04 17:43 | 39.77071 | -1.13234 | 24487 ft | 418 kts | 294° |
| 2026-05-04 17:43 | 39.78509 | -1.16538 | 24787 ft | 420 kts | 294° |
| 2026-05-04 17:44 | 39.79953 | -1.19845 | 25129 ft | 421 kts | 295° |
| 2026-05-04 17:44 | 39.81403 | -1.23171 | 25435 ft | 423 kts | 295° |
| 2026-05-04 17:44 | 39.82857 | -1.26509 | 25718 ft | 425 kts | 295° |
| 2026-05-04 17:44 | 39.84294 | -1.29820 | 26009 ft | 426 kts | 295° |
| 2026-05-04 17:45 | 39.85749 | -1.33185 | 26277 ft | 428 kts | 295° |
| 2026-05-04 17:45 | 39.87208 | -1.36570 | 26539 ft | 429 kts | 295° |
| 2026-05-04 17:45 | 39.88668 | -1.39962 | 26801 ft | 430 kts | 294° |
| 2026-05-04 17:45 | 39.90132 | -1.43367 | 27045 ft | 432 kts | 294° |
| 2026-05-04 17:46 | 39.91604 | -1.46785 | 27282 ft | 433 kts | 294° |
| 2026-05-04 17:46 | 39.93080 | -1.50204 | 27533 ft | 433 kts | 294° |
| 2026-05-04 17:46 | 39.94556 | -1.53626 | 27885 ft | 432 kts | 295° |
| 2026-05-04 17:46 | 39.96023 | -1.57038 | 28239 ft | 430 kts | 295° |
| 2026-05-04 17:47 | 39.97483 | -1.60442 | 28591 ft | 429 kts | 294° |
| 2026-05-04 17:47 | 39.98935 | -1.63835 | 28936 ft | 428 kts | 294° |
| 2026-05-04 17:47 | 40.00380 | -1.67220 | 29278 ft | 426 kts | 294° |
| 2026-05-04 17:47 | 40.01817 | -1.70592 | 29629 ft | 425 kts | 294° |
| 2026-05-04 17:48 | 40.03254 | -1.73969 | 29904 ft | 426 kts | 294° |
| 2026-05-04 17:48 | 40.04693 | -1.77349 | 29987 ft | 427 kts | 294° |
| 2026-05-04 17:48 | 40.07584 | -1.84137 | 29978 ft | 428 kts | 294° |
| 2026-05-04 17:49 | 40.10475 | -1.90926 | 29994 ft | 428 kts | 294° |
| 2026-05-04 17:49 | 40.13347 | -1.97714 | 29989 ft | 426 kts | 294° |
| 2026-05-04 17:50 | 40.16217 | -2.04494 | 29975 ft | 426 kts | 294° |
| 2026-05-04 17:50 | 40.19103 | -2.11267 | 29979 ft | 426 kts | 294° |
| 2026-05-04 17:51 | 40.21989 | -2.18038 | 29962 ft | 426 kts | 294° |
| 2026-05-04 17:51 | 40.24839 | -2.24785 | 29978 ft | 427 kts | 294° |
| 2026-05-04 17:52 | 40.27684 | -2.31614 | 29973 ft | 427 kts | 294° |
| 2026-05-04 17:52 | 40.30532 | -2.38441 | 29974 ft | 427 kts | 294° |
| 2026-05-04 17:53 | 40.33380 | -2.45254 | 29968 ft | 426 kts | 294° |
| 2026-05-04 17:53 | 40.36218 | -2.52074 | 29965 ft | 426 kts | 295° |
| 2026-05-04 17:54 | 40.39850 | -2.58304 | 29962 ft | 434 kts | 307° |
| 2026-05-04 17:54 | 40.43927 | -2.64169 | 29955 ft | 434 kts | 307° |
| 2026-05-04 17:55 | 40.47996 | -2.70040 | 29981 ft | 434 kts | 307° |
| 2026-05-04 17:55 | 40.52056 | -2.75914 | 29975 ft | 434 kts | 307° |
| 2026-05-04 17:56 | 40.56103 | -2.81796 | 29963 ft | 433 kts | 307° |
| 2026-05-04 17:56 | 40.60142 | -2.87678 | 29959 ft | 433 kts | 307° |
| 2026-05-04 17:57 | 40.64183 | -2.93569 | 29958 ft | 433 kts | 307° |
| 2026-05-04 17:57 | 40.68196 | -2.99420 | 29956 ft | 433 kts | 307° |
| 2026-05-04 17:58 | 40.72233 | -3.05324 | 29977 ft | 433 kts | 306° |
| 2026-05-04 17:58 | 40.76261 | -3.11228 | 29969 ft | 433 kts | 306° |
| 2026-05-04 17:59 | 40.80291 | -3.17121 | 29965 ft | 434 kts | 309° |
| 2026-05-04 17:59 | 40.85369 | -3.21643 | 29962 ft | 453 kts | 332° |
| 2026-05-04 18:00 | 40.88426 | -3.22811 | 29982 ft | 464 kts | 344° |
| 2026-05-04 18:00 | 40.91685 | -3.23104 | 29964 ft | 475 kts | 357° |
| 2026-05-04 18:00 | 40.94995 | -3.22538 | 29960 ft | 482 kts | 4° |
| 2026-05-04 18:01 | 41.01608 | -3.21053 | 29956 ft | 482 kts | 4° |
| 2026-05-04 18:01 | 41.08233 | -3.19557 | 29957 ft | 483 kts | 4° |
| 2026-05-04 18:02 | 41.18181 | -3.17322 | 29970 ft | 484 kts | 4° |
| 2026-05-04 18:02 | 41.24824 | -3.15826 | 29970 ft | 484 kts | 4° |
| 2026-05-04 18:03 | 41.31476 | -3.14318 | 29991 ft | 485 kts | 4° |
| 2026-05-04 18:03 | 41.38132 | -3.12810 | 29984 ft | 485 kts | 4° |
| 2026-05-04 18:04 | 41.44750 | -3.11310 | 29982 ft | 485 kts | 4° |
| 2026-05-04 18:05 | 41.54739 | -3.09037 | 30013 ft | 486 kts | 4° |
| 2026-05-04 18:05 | 41.61417 | -3.07512 | 29997 ft | 486 kts | 4° |
| 2026-05-04 18:06 | 41.71425 | -3.05244 | 29963 ft | 486 kts | 4° |
| 2026-05-04 18:06 | 41.78107 | -3.03722 | 29987 ft | 487 kts | 5° |
| 2026-05-04 18:07 | 41.84786 | -3.02175 | 29989 ft | 488 kts | 5° |
| 2026-05-04 18:07 | 41.91473 | -3.00623 | 29991 ft | 488 kts | 5° |
| 2026-05-04 18:08 | 41.98171 | -2.99071 | 30012 ft | 488 kts | 5° |
| 2026-05-04 18:08 | 42.04858 | -2.97524 | 30007 ft | 488 kts | 5° |
| 2026-05-04 18:09 | 42.18243 | -2.94416 | 30024 ft | 488 kts | 5° |
| 2026-05-04 18:10 | 42.24886 | -2.92865 | 30012 ft | 487 kts | 5° |
| 2026-05-04 18:10 | 42.31569 | -2.91298 | 29918 ft | 488 kts | 5° |
| 2026-05-04 18:11 | 42.33827 | -2.90767 | 29720 ft | 487 kts | 5° |
| 2026-05-04 18:11 | 42.37173 | -2.89981 | 29435 ft | 487 kts | 6° |
| 2026-05-04 18:11 | 42.40448 | -2.89128 | 28248 ft | 484 kts | 11° |
| 2026-05-04 18:11 | 42.43636 | -2.87711 | 26894 ft | 484 kts | 20° |
| 2026-05-04 18:12 | 42.46683 | -2.85664 | 25576 ft | 493 kts | 29° |
| 2026-05-04 18:12 | 42.49521 | -2.83002 | 24293 ft | 499 kts | 38° |
| 2026-05-04 18:12 | 42.52144 | -2.79890 | 22986 ft | 501 kts | 41° |
| 2026-05-04 18:12 | 42.54735 | -2.76760 | 22054 ft | 495 kts | 41° |
| 2026-05-04 18:13 | 42.57289 | -2.73683 | 21162 ft | 488 kts | 41° |
| 2026-05-04 18:13 | 42.59813 | -2.70641 | 20274 ft | 480 kts | 41° |
| 2026-05-04 18:13 | 42.64631 | -2.64814 | 18602 ft | 457 kts | 41° |
| 2026-05-04 18:14 | 42.67006 | -2.61932 | 17732 ft | 455 kts | 41° |
| 2026-05-04 18:14 | 42.69355 | -2.59079 | 16949 ft | 451 kts | 41° |
| 2026-05-04 18:14 | 42.71691 | -2.56241 | 16180 ft | 447 kts | 41° |
| 2026-05-04 18:15 | 42.76297 | -2.50644 | 14724 ft | 440 kts | 41° |
| 2026-05-04 18:15 | 42.80800 | -2.45171 | 13298 ft | 425 kts | 41° |
| 2026-05-04 18:15 | 42.82964 | -2.42533 | 12644 ft | 420 kts | 41° |
| 2026-05-04 18:16 | 42.85125 | -2.39888 | 11981 ft | 415 kts | 41° |
| 2026-05-04 18:16 | 42.87260 | -2.37270 | 11377 ft | 409 kts | 41° |
| 2026-05-04 18:16 | 42.89324 | -2.34734 | 11226 ft | 390 kts | 41° |
| 2026-05-04 18:17 | 42.93182 | -2.29996 | 10974 ft | 357 kts | 40° |
| 2026-05-04 18:17 | 42.95136 | -2.28056 | 10841 ft | 339 kts | 24° |
| 2026-05-04 18:17 | 42.99489 | -2.27334 | 10591 ft | 304 kts | 343° |
| 2026-05-04 18:18 | 43.01397 | -2.28381 | 10399 ft | 291 kts | 326° |
| 2026-05-04 18:18 | 43.02921 | -2.30117 | 10274 ft | 283 kts | 311° |
| 2026-05-04 18:18 | 43.04282 | -2.32065 | 10141 ft | 283 kts | 311° |
| 2026-05-04 18:18 | 43.05636 | -2.34012 | 10009 ft | 283 kts | 311° |
| 2026-05-04 18:19 | 43.08366 | -2.37934 | 8807 ft | 280 kts | 313° |
| 2026-05-04 18:19 | 43.09708 | -2.39856 | 8072 ft | 279 kts | 313° |
| 2026-05-04 18:19 | 43.11041 | -2.41768 | 7421 ft | 275 kts | 313° |
| 2026-05-04 18:20 | 43.12295 | -2.43578 | 7184 ft | 255 kts | 311° |
| 2026-05-04 18:20 | 43.13264 | -2.45489 | 7073 ft | 237 kts | 300° |
| 2026-05-04 18:20 | 43.14012 | -2.47478 | 6954 ft | 227 kts | 298° |
| 2026-05-04 18:20 | 43.14705 | -2.49375 | 6847 ft | 218 kts | 298° |
| 2026-05-04 18:21 | 43.15376 | -2.51187 | 6756 ft | 208 kts | 298° |
| 2026-05-04 18:21 | 43.16011 | -2.52896 | 6688 ft | 195 kts | 298° |
| 2026-05-04 18:21 | 43.16602 | -2.54485 | 6562 ft | 185 kts | 298° |
| 2026-05-04 18:21 | 43.17176 | -2.56029 | 6350 ft | 179 kts | 299° |
| 2026-05-04 18:22 | 43.17733 | -2.57529 | 6116 ft | 171 kts | 299° |
| 2026-05-04 18:22 | 43.18269 | -2.58972 | 5843 ft | 168 kts | 301° |
| 2026-05-04 18:22 | 43.18794 | -2.60387 | 5582 ft | 166 kts | 300° |
| 2026-05-04 18:22 | 43.19319 | -2.61802 | 5330 ft | 166 kts | 300° |
| 2026-05-04 18:23 | 43.19842 | -2.63212 | 5079 ft | 165 kts | 300° |
| 2026-05-04 18:23 | 43.20364 | -2.64621 | 4822 ft | 165 kts | 300° |
| 2026-05-04 18:23 | 43.20884 | -2.66026 | 4568 ft | 165 kts | 299° |
| 2026-05-04 18:23 | 43.21403 | -2.67429 | 4309 ft | 164 kts | 299° |
| 2026-05-04 18:24 | 43.21919 | -2.68824 | 4055 ft | 164 kts | 299° |
| 2026-05-04 18:24 | 43.22429 | -2.70203 | 3809 ft | 163 kts | 298° |
| 2026-05-04 18:24 | 43.22942 | -2.71590 | 3556 ft | 162 kts | 298° |
| 2026-05-04 18:24 | 43.23450 | -2.72967 | 3314 ft | 161 kts | 298° |
| 2026-05-04 18:25 | 43.23941 | -2.74297 | 3068 ft | 150 kts | 298° |
| 2026-05-04 18:25 | 43.24396 | -2.75531 | 2843 ft | 141 kts | 298° |
| 2026-05-04 18:25 | 43.24836 | -2.76722 | 2630 ft | 139 kts | 298° |
| 2026-05-04 18:25 | 43.25271 | -2.77902 | 2422 ft | 138 kts | 298° |
| 2026-05-04 18:26 | 43.25705 | -2.79079 | 2197 ft | 138 kts | 298° |
| 2026-05-04 18:26 | 43.26139 | -2.80257 | 1984 ft | 138 kts | 298° |
| 2026-05-04 18:26 | 43.26573 | -2.81435 | 1760 ft | 138 kts | 297° |
| 2026-05-04 18:26 | 43.27007 | -2.82615 | 1542 ft | 138 kts | 297° |
| 2026-05-04 18:27 | 43.27405 | -2.83694 | 1353 ft | 137 kts | 297° |
| 2026-05-04 18:27 | 43.27834 | -2.84861 | 1107 ft | 136 kts | 298° |
| 2026-05-04 18:27 | 43.28260 | -2.86015 | 893 ft | 135 kts | 297° |
| 2026-05-04 18:27 | 43.28673 | -2.87146 | 699 ft | 134 kts | 297° |
| 2026-05-04 18:28 | 43.29095 | -2.88274 | 488 ft | 131 kts | 298° |
| 2026-05-04 18:28 | 43.29505 | -2.89387 | 308 ft | 130 kts | 297° |
| 2026-05-04 18:28 | 43.29900 | -2.90495 | 147 ft | 128 kts | 297° |
| 2026-05-04 18:28 | 43.30266 | -2.91480 | 123 ft | 92 kts | 296° |
| 2026-05-04 18:29 | 43.30467 | -2.92045 | 125 ft | 38 kts | 294° |
| 2026-05-04 18:29 | 43.30568 | -2.92331 | 126 ft | 28 kts | 298° |
| 2026-05-04 18:29 | 43.30607 | -2.92514 | 127 ft | 16 kts | 267° |
| 2026-05-04 18:29 | 43.30571 | -2.92624 | 133 ft | 12 kts | 232° |
| 2026-05-04 18:30 | 43.30451 | -2.92812 | 132 ft | 15 kts | 228° |
| 2026-05-04 18:30 | 43.30380 | -2.92920 | 132 ft | 16 kts | 228° |
| 2026-05-04 18:30 | 43.30322 | -2.92996 | 128 ft | 11 kts | 209° |
| 2026-05-04 18:31 | 43.30235 | -2.93018 | 128 ft | 11 kts | 188° |
| 2026-05-04 18:31 | 43.30192 | -2.93026 | 132 ft | 5 kts | 186° |
| 2026-05-04 18:31 | 43.30154 | -2.93043 | 132 ft | 6 kts | 222° |
| 2026-05-04 18:31 | 43.30144 | -2.93111 | 132 ft | 11 kts | 274° |
| 2026-05-04 18:32 | 43.30146 | -2.93203 | 132 ft | 7 kts | 248° |
| 2026-05-04 18:32 | 43.30113 | -2.93212 | 132 ft | 5 kts | 166° |
| 2026-05-04 18:32 | 43.30092 | -2.93213 | 132 ft | 2 kts | 210° |
| 2026-05-04 18:32 | 43.30094 | -2.93224 | 132 ft | 1 kts | 288° |
| 2026-05-04 18:33 | 43.30117 | -2.93253 | 132 ft | 10 kts | 307° |
| 2026-05-04 18:33 | 43.30100 | -2.93302 | 132 ft | 6 kts | 192° |
| 2026-05-04 18:33 | 43.30090 | -2.93302 | 132 ft | 0 kts | 179° |
| 2026-05-04 18:33 | 43.30094 | -2.93302 | 132 ft | 0 kts | 186° |